Time;durP1;ratioP1;P1;durP2;ratioP2;P2;SDS_P1;SDS_P2;PMS_P1;PMS_P2;Temp;Humidity;BMP_temperature;BMP_pressure;BME280_temperature;BME280_humidity;BME280_pressure;Samples;Min_cycle;Max_cycle;Signal;HPM_P1;HPM_P2
2021/07/14 00:01:25;;;;;;;7.20;6.70;;;23.20;99.90;;;;;;5054093;28;20445;-77
2021/07/14 00:03:52;;;;;;;6.70;6.20;;;23.20;99.90;;;;;;5053420;28;20438;-76
2021/07/14 00:06:18;;;;;;;8.23;7.50;;;23.20;99.90;;;;;;5052738;28;20453;-75
2021/07/14 00:08:45;;;;;;;7.07;6.57;;;23.20;99.90;;;;;;5052030;28;20441;-75
2021/07/14 00:11:12;;;;;;;6.93;6.43;;;23.10;99.90;;;;;;5052626;28;20777;-75
2021/07/14 00:13:57;;;;;;;7.07;6.60;;;23.20;99.90;;;;;;5052847;28;20810;-74
2021/07/14 00:22:10;;;;;;;6.77;6.27;;;23.10;99.90;;;;;;5052569;28;20438;-75
2021/07/14 00:24:37;;;;;;;8.47;7.80;;;23.10;99.90;;;;;;5051982;28;20438;-75
2021/07/14 00:27:06;;;;;;;7.27;6.77;;;23.10;99.90;;;;;;5052151;28;20460;-76
2021/07/14 00:29:35;;;;;;;7.53;7.03;;;23.10;99.90;;;;;;5052103;28;20453;-76
2021/07/14 00:32:04;;;;;;;7.27;6.77;;;23.10;99.90;;;;;;5052034;28;20449;-76
2021/07/14 00:34:31;;;;;;;6.70;6.23;;;23.10;99.90;;;;;;5052447;28;20513;-76
2021/07/14 00:36:58;;;;;;;6.33;5.93;;;23.00;99.90;;;;;;5053231;28;20782;-76
2021/07/14 00:39:25;;;;;;;6.47;6.07;;;23.00;99.90;;;;;;5053453;28;20781;-76
2021/07/14 00:41:51;;;;;;;6.43;5.97;;;23.10;99.90;;;;;;5053031;28;20485;-75
2021/07/14 00:44:18;;;;;;;8.10;7.50;;;23.10;99.90;;;;;;5052722;28;20450;-76
2021/07/14 00:46:47;;;;;;;7.70;7.10;;;23.00;99.90;;;;;;5052494;28;20442;-76
2021/07/14 00:49:17;;;;;;;8.10;7.50;;;23.00;99.90;;;;;;5053050;28;20920;-76
2021/07/14 00:51:44;;;;;;;8.03;7.33;;;23.00;99.90;;;;;;5053556;28;20450;-76
2021/07/14 00:54:11;;;;;;;6.33;5.93;;;23.00;99.90;;;;;;5053253;28;20446;-75
2021/07/14 00:56:39;;;;;;;7.83;7.23;;;23.00;99.90;;;;;;5052764;28;20499;-75
2021/07/14 00:59:05;;;;;;;7.00;6.50;;;23.00;99.90;;;;;;5052617;28;20508;-75
2021/07/14 01:01:32;;;;;;;6.53;6.13;;;23.00;99.90;;;;;;5053122;28;20956;-75
2021/07/14 01:04:09;;;;;;;7.53;6.93;;;23.00;99.90;;;;;;5052892;28;20446;-76
2021/07/14 01:06:50;;;;;;;7.43;6.83;;;22.90;99.90;;;;;;5051131;28;20460;-77
2021/07/14 01:09:18;;;;;;;6.50;6.10;;;22.90;99.90;;;;;;5052688;28;20479;-75
2021/07/14 01:11:46;;;;;;;6.97;6.47;;;22.90;99.90;;;;;;5053059;28;21071;-75
2021/07/14 01:14:22;;;;;;;6.83;6.43;;;22.90;99.90;;;;;;5052801;28;20453;-75
2021/07/14 01:16:55;;;;;;;7.10;6.60;;;22.90;99.90;;;;;;5052369;28;20844;-75
2021/07/14 01:19:36;;;;;;;7.23;6.73;;;22.90;99.90;;;;;;5052677;28;20797;-75
2021/07/14 01:22:13;;;;;;;7.50;6.70;;;22.90;99.90;;;;;;5052508;28;20456;-75
2021/07/14 01:24:49;;;;;;;6.73;6.23;;;22.90;99.90;;;;;;5052355;28;20905;-75
2021/07/14 01:27:20;;;;;;;7.77;7.17;;;22.90;99.90;;;;;;5052722;28;20473;-75
2021/07/14 01:29:51;;;;;;;6.47;6.00;;;22.90;99.90;;;;;;5052461;28;20442;-74
2021/07/14 01:32:21;;;;;;;7.70;7.10;;;22.80;99.90;;;;;;5052314;28;20450;-74
2021/07/14 01:34:52;;;;;;;7.90;7.20;;;22.80;99.90;;;;;;5053228;28;20453;-74
2021/07/14 01:37:23;;;;;;;6.53;6.03;;;22.80;99.90;;;;;;5051932;28;20485;-74
2021/07/14 01:39:52;;;;;;;7.20;6.60;;;22.80;99.90;;;;;;5052255;28;20453;-74
2021/07/14 01:42:22;;;;;;;7.57;7.00;;;22.80;99.90;;;;;;5052411;28;20497;-74
2021/07/14 01:44:51;;;;;;;7.17;6.67;;;22.80;99.90;;;;;;5052164;28;20897;-75
2021/07/14 01:47:20;;;;;;;5.93;5.53;;;22.80;99.90;;;;;;5052401;28;20444;-75
2021/07/14 01:49:48;;;;;;;6.80;6.30;;;22.80;99.90;;;;;;5052395;28;20457;-75
2021/07/14 01:52:18;;;;;;;6.93;6.43;;;22.80;99.90;;;;;;5064370;28;20437;-74
2021/07/14 01:54:46;;;;;;;6.97;6.47;;;22.70;99.90;;;;;;5053569;28;20465;-76
2021/07/14 01:57:14;;;;;;;6.97;6.47;;;22.70;99.90;;;;;;5055792;28;20473;-76
2021/07/14 01:59:44;;;;;;;7.27;6.77;;;22.70;99.90;;;;;;5056166;28;20453;-75
2021/07/14 02:02:13;;;;;;;6.10;5.60;;;22.70;99.90;;;;;;5056624;28;20457;-77
2021/07/14 02:04:42;;;;;;;6.70;6.13;;;22.70;99.90;;;;;;5055824;28;20864;-76
2021/07/14 02:07:12;;;;;;;6.60;6.20;;;22.70;99.90;;;;;;5054326;28;20453;-75
2021/07/14 02:09:42;;;;;;;7.50;6.80;;;22.70;99.90;;;;;;5054583;28;20446;-76
2021/07/14 02:12:13;;;;;;;6.73;6.20;;;22.60;99.90;;;;;;5054938;28;20449;-76
2021/07/14 02:14:45;;;;;;;6.50;6.00;;;22.70;99.90;;;;;;5054697;28;20446;-76
2021/07/14 02:17:15;;;;;;;7.30;6.73;;;22.60;99.90;;;;;;5054496;28;20474;-75
2021/07/14 02:19:47;;;;;;;6.67;6.17;;;22.60;99.90;;;;;;5054727;28;20441;-76
2021/07/14 02:22:14;;;;;;;7.23;6.63;;;22.50;99.90;;;;;;5054644;28;20452;-76
2021/07/14 02:24:41;;;;;;;6.80;6.30;;;22.60;99.90;;;;;;5054535;28;20452;-76
2021/07/14 02:27:10;;;;;;;6.47;5.97;;;22.60;99.90;;;;;;5054436;28;20446;-76
2021/07/14 02:29:37;;;;;;;7.33;6.80;;;22.60;99.90;;;;;;5053993;28;20949;-77
2021/07/14 02:32:07;;;;;;;7.63;7.03;;;22.60;99.90;;;;;;5054335;28;20445;-77
2021/07/14 02:34:35;;;;;;;6.67;6.17;;;22.60;99.90;;;;;;5054467;28;20188;-77
2021/07/14 02:37:04;;;;;;;6.30;5.90;;;22.60;99.90;;;;;;5055112;28;20978;-76
2021/07/14 02:39:31;;;;;;;6.60;6.18;;;22.60;99.90;;;;;;5055195;28;20438;-77
2021/07/14 02:42:09;;;;;;;6.72;6.22;;;22.60;99.90;;;;;;5054949;28;20224;-76
2021/07/14 02:44:41;;;;;;;7.87;7.23;;;22.50;99.90;;;;;;5054956;28;20256;-77
2021/07/14 02:47:11;;;;;;;8.47;7.80;;;22.60;99.90;;;;;;5054925;28;20537;-77
2021/07/14 02:49:39;;;;;;;5.87;5.40;;;22.60;99.90;;;;;;5055168;28;20920;-76
2021/07/14 02:52:08;;;;;;;7.73;7.13;;;22.50;99.90;;;;;;5055375;28;20448;-76
2021/07/14 02:54:35;;;;;;;7.07;6.57;;;22.50;99.90;;;;;;5055215;28;20543;-77
2021/07/14 02:57:03;;;;;;;7.50;7.00;;;22.50;99.90;;;;;;5054309;28;20485;-76
2021/07/14 02:59:36;;;;;;;7.57;6.97;;;22.50;99.90;;;;;;5055000;28;20821;-76
2021/07/14 03:02:05;;;;;;;7.90;7.30;;;22.50;99.90;;;;;;5054736;28;20454;-76
2021/07/14 03:04:37;;;;;;;6.77;6.27;;;22.50;99.90;;;;;;5054986;28;20453;-77
2021/07/14 03:07:08;;;;;;;6.47;5.97;;;22.40;99.90;;;;;;5037804;28;20775;-77
2021/07/14 03:09:38;;;;;;;7.60;7.00;;;22.40;99.90;;;;;;5033807;28;20474;-77
2021/07/14 03:12:07;;;;;;;6.60;6.10;;;22.50;99.90;;;;;;5047234;28;20507;-75
2021/07/14 03:14:37;;;;;;;7.10;6.50;;;22.50;99.90;;;;;;5053591;28;20441;-76
2021/07/14 03:17:05;;;;;;;7.50;7.00;;;22.40;99.90;;;;;;5053490;28;20203;-76
2021/07/14 03:19:34;;;;;;;6.95;6.45;;;22.40;99.90;;;;;;5053705;28;20438;-76
2021/07/14 03:22:01;;;;;;;7.93;7.33;;;22.40;99.90;;;;;;5053528;28;20534;-76
2021/07/14 03:24:28;;;;;;;7.38;6.82;;;22.40;99.90;;;;;;5053251;28;20979;-76
2021/07/14 03:26:56;;;;;;;7.80;7.20;;;22.40;99.90;;;;;;5053231;28;20204;-77
2021/07/14 03:29:24;;;;;;;7.30;6.70;;;22.40;99.90;;;;;;5053453;28;20441;-75
2021/07/14 03:31:52;;;;;;;7.10;6.60;;;22.40;99.90;;;;;;5053497;28;20453;-76
2021/07/14 03:34:19;;;;;;;6.67;6.13;;;22.40;99.90;;;;;;5052843;28;20454;-76
2021/07/14 03:36:48;;;;;;;6.60;6.10;;;22.40;99.90;;;;;;5054466;28;20452;-75
2021/07/14 03:39:16;;;;;;;7.53;6.88;;;22.40;99.90;;;;;;5053767;28;20492;-75
2021/07/14 03:41:43;;;;;;;7.10;6.60;;;22.40;99.90;;;;;;5053672;28;20246;-76
2021/07/14 03:44:12;;;;;;;7.23;6.73;;;22.40;99.90;;;;;;5053929;28;20438;-76
2021/07/14 03:46:40;;;;;;;7.37;6.83;;;22.30;99.90;;;;;;5054125;28;20438;-76
2021/07/14 03:49:07;;;;;;;6.68;6.18;;;22.30;99.90;;;;;;5054062;28;20468;-76
2021/07/14 03:51:34;;;;;;;6.70;6.20;;;22.30;99.90;;;;;;5053929;28;20206;-76
2021/07/14 03:54:02;;;;;;;7.65;7.05;;;22.30;99.90;;;;;;5053965;28;20449;-76
2021/07/14 03:56:29;;;;;;;7.83;7.23;;;22.30;99.90;;;;;;5053462;28;20508;-76
2021/07/14 03:58:58;;;;;;;7.87;7.27;;;22.30;99.90;;;;;;5053791;28;20565;-77
2021/07/14 04:01:25;;;;;;;7.40;6.83;;;22.30;99.90;;;;;;5054103;28;20784;-77
2021/07/14 04:03:52;;;;;;;6.97;6.47;;;22.30;99.90;;;;;;5054112;28;20493;-76
2021/07/14 04:06:21;;;;;;;6.60;6.07;;;22.30;99.90;;;;;;5053338;28;20472;-76
2021/07/14 04:09:07;;;;;;;7.23;6.73;;;22.30;99.90;;;;;;5053354;28;20446;-76
2021/07/14 04:11:35;;;;;;;6.90;6.30;;;22.30;99.90;;;;;;5053963;28;20449;-76
2021/07/14 04:14:02;;;;;;;7.20;6.60;;;22.30;99.90;;;;;;5053700;28;20457;-76
2021/07/14 04:16:29;;;;;;;6.72;6.18;;;22.30;99.90;;;;;;5053645;28;20214;-76
2021/07/14 04:18:56;;;;;;;6.80;6.35;;;22.30;99.90;;;;;;5052740;28;20212;-76
2021/07/14 04:21:22;;;;;;;7.70;7.00;;;22.30;99.90;;;;;;5053691;28;20236;-76
2021/07/14 04:23:49;;;;;;;6.90;6.30;;;22.30;99.90;;;;;;5053669;28;20434;-76
2021/07/14 04:26:16;;;;;;;7.13;6.63;;;22.20;99.90;;;;;;5053458;28;20446;-76
2021/07/14 04:28:44;;;;;;;6.47;5.97;;;22.20;99.90;;;;;;5053135;28;20461;-77
2021/07/14 04:31:10;;;;;;;6.60;6.10;;;22.20;99.90;;;;;;5053493;28;20920;-76
2021/07/14 04:33:37;;;;;;;7.10;6.60;;;22.20;99.90;;;;;;5053186;28;20649;-76
2021/07/14 04:36:04;;;;;;;6.90;6.40;;;22.20;99.90;;;;;;5053617;28;20812;-78
2021/07/14 04:38:31;;;;;;;7.18;6.57;;;22.20;99.90;;;;;;5052917;28;20560;-78
2021/07/14 04:40:58;;;;;;;7.57;7.00;;;22.20;99.90;;;;;;5053179;28;20231;-78
2021/07/14 04:43:24;;;;;;;6.60;6.00;;;22.20;99.90;;;;;;5052825;28;20222;-78
2021/07/14 04:45:52;;;;;;;6.47;6.07;;;22.20;99.90;;;;;;5053324;28;20797;-78
2021/07/14 04:48:20;;;;;;;6.38;5.88;;;22.20;99.90;;;;;;5052784;28;20786;-78
2021/07/14 04:50:46;;;;;;;7.57;6.97;;;22.20;99.90;;;;;;5053345;28;20594;-78
2021/07/14 04:53:13;;;;;;;6.50;6.00;;;22.20;99.90;;;;;;5053069;28;20453;-78
2021/07/14 04:55:40;;;;;;;7.28;6.78;;;22.20;99.90;;;;;;5054287;28;20449;-78
2021/07/14 04:58:07;;;;;;;6.18;5.78;;;22.20;99.90;;;;;;5072525;28;20220;-78
2021/07/14 05:00:34;;;;;;;7.00;6.50;;;22.20;99.90;;;;;;5072311;28;20234;-78
2021/07/14 05:03:02;;;;;;;6.50;6.00;;;22.10;99.90;;;;;;5071831;28;20211;-78
2021/07/14 05:05:28;;;;;;;7.00;6.40;;;22.20;99.90;;;;;;5070052;28;20198;-77
2021/07/14 05:07:55;;;;;;;6.60;6.10;;;22.20;99.90;;;;;;5048608;28;20763;-77
2021/07/14 05:10:28;;;;;;;7.18;6.55;;;22.10;99.90;;;;;;5051531;28;20781;-77
2021/07/14 05:12:55;;;;;;;6.50;5.90;;;22.10;99.90;;;;;;5051630;28;20677;-74
2021/07/14 05:15:22;;;;;;;7.70;7.00;;;22.10;99.90;;;;;;5051490;28;20681;-77
2021/07/14 05:17:48;;;;;;;6.60;5.65;;;22.10;99.90;;;;;;5051686;28;20474;-77
2021/07/14 05:20:17;;;;;;;6.75;6.25;;;22.10;99.90;;;;;;5051824;28;20218;-77
2021/07/14 05:22:44;;;;;;;6.72;6.22;;;22.10;99.90;;;;;;5051501;28;20253;-77
2021/07/14 05:25:11;;;;;;;6.95;6.35;;;22.10;99.90;;;;;;5051358;28;20250;-76
2021/07/14 05:27:38;;;;;;;7.05;6.47;;;22.10;99.90;;;;;;5051245;28;20200;-77
2021/07/14 05:30:06;;;;;;;6.75;6.35;;;22.10;99.90;;;;;;5055347;28;20716;-77
2021/07/14 05:32:33;;;;;;;6.30;5.90;;;22.10;99.90;;;;;;5057014;28;20665;-76
2021/07/14 05:35:00;;;;;;;6.53;6.03;;;22.10;99.90;;;;;;5056551;28;20531;-76
2021/07/14 05:37:28;;;;;;;6.17;5.67;;;22.10;99.90;;;;;;5056351;28;20196;-76
2021/07/14 05:39:55;;;;;;;6.72;6.22;;;22.10;99.90;;;;;;5055864;28;20967;-76
2021/07/14 05:42:21;;;;;;;6.73;6.23;;;22.10;99.90;;;;;;5056126;28;20238;-76
2021/07/14 05:44:48;;;;;;;6.13;5.73;;;22.10;99.90;;;;;;5053788;28;20860;-77
2021/07/14 05:47:15;;;;;;;6.37;5.87;;;22.10;99.90;;;;;;5055114;28;20446;-76
2021/07/14 05:49:43;;;;;;;7.03;6.53;;;22.00;99.90;;;;;;5056537;28;20448;-75
2021/07/14 05:52:12;;;;;;;6.93;6.43;;;22.10;99.90;;;;;;5056061;28;20199;-74
2021/07/14 05:54:40;;;;;;;5.63;5.23;;;22.10;99.90;;;;;;5056321;28;20527;-75
2021/07/14 05:57:07;;;;;;;6.33;5.83;;;22.10;99.90;;;;;;5056169;28;20452;-75
2021/07/14 05:59:33;;;;;;;6.33;5.83;;;22.00;99.90;;;;;;5055672;28;20484;-76
2021/07/14 06:02:00;;;;;;;5.53;5.13;;;22.10;99.90;;;;;;5056254;28;20785;-76
2021/07/14 06:04:27;;;;;;;6.93;6.43;;;22.00;99.90;;;;;;5056248;28;20781;-76
2021/07/14 06:06:56;;;;;;;6.00;5.60;;;22.00;99.90;;;;;;5054800;28;20481;-76
2021/07/14 06:09:22;;;;;;;6.25;5.75;;;22.00;99.90;;;;;;5054298;28;20226;-76
2021/07/14 06:11:50;;;;;;;6.43;5.87;;;22.00;99.90;;;;;;5054754;28;20203;-76
2021/07/14 06:14:17;;;;;;;6.75;6.22;;;22.00;99.90;;;;;;5055108;28;20464;-76
2021/07/14 06:16:44;;;;;;;6.10;5.60;;;22.00;99.90;;;;;;5054551;28;20211;-76
2021/07/14 06:19:10;;;;;;;6.97;5.87;;;22.00;99.90;;;;;;5054515;28;20477;-76
2021/07/14 06:21:38;;;;;;;6.38;5.88;;;22.00;99.90;;;;;;5054704;28;20445;-76
2021/07/14 06:24:05;;;;;;;6.40;5.90;;;22.00;99.90;;;;;;5054534;28;20928;-76
2021/07/14 06:26:32;;;;;;;6.50;6.00;;;22.00;99.90;;;;;;5054837;28;20446;-76
2021/07/14 06:29:00;;;;;;;5.97;5.53;;;22.00;99.90;;;;;;5054305;28;20199;-76
2021/07/14 06:31:26;;;;;;;5.93;5.47;;;22.00;99.90;;;;;;5054550;28;20219;-76
2021/07/14 06:33:53;;;;;;;6.10;5.70;;;22.00;99.90;;;;;;5054487;28;20216;-76
2021/07/14 06:36:20;;;;;;;5.65;5.15;;;22.00;99.90;;;;;;5055093;28;20195;-76
2021/07/14 06:38:47;;;;;;;7.23;6.63;;;22.00;99.90;;;;;;5054838;28;20211;-75
2021/07/14 06:41:17;;;;;;;6.30;5.80;;;22.00;99.90;;;;;;5054507;28;20813;-75
2021/07/14 06:43:45;;;;;;;6.27;5.73;;;22.00;99.90;;;;;;5055277;28;20277;-75
2021/07/14 06:46:15;;;;;;;6.43;5.83;;;22.00;99.90;;;;;;5055653;28;20469;-76
2021/07/14 06:48:42;;;;;;;5.72;5.30;;;22.00;99.90;;;;;;5055314;28;20442;-76
2021/07/14 06:51:09;;;;;;;6.15;5.65;;;22.00;99.90;;;;;;5055011;28;20253;-77
2021/07/14 06:53:36;;;;;;;6.20;5.70;;;22.00;99.90;;;;;;5055414;28;20210;-76
2021/07/14 06:56:03;;;;;;;5.90;5.40;;;22.00;99.90;;;;;;5055311;28;20199;-77
2021/07/14 06:58:30;;;;;;;6.72;6.22;;;22.00;99.90;;;;;;5055125;28;20532;-76
2021/07/14 07:00:58;;;;;;;6.53;6.03;;;22.00;99.90;;;;;;5055228;28;20206;-76
2021/07/14 07:03:26;;;;;;;5.70;5.20;;;22.00;99.90;;;;;;5055252;28;20441;-76
2021/07/14 07:05:52;;;;;;;6.10;5.57;;;21.90;99.90;;;;;;5053938;28;20211;-76
2021/07/14 07:08:19;;;;;;;5.75;5.28;;;21.90;99.90;;;;;;5050613;28;20222;-76
2021/07/14 07:10:47;;;;;;;6.55;5.97;;;22.00;99.90;;;;;;5054049;28;20211;-76
2021/07/14 07:13:16;;;;;;;6.72;6.22;;;21.90;99.90;;;;;;5054140;28;20231;-76
2021/07/14 07:15:43;;;;;;;6.70;6.10;;;22.00;99.90;;;;;;5053470;28;20215;-77
2021/07/14 07:18:10;;;;;;;7.13;6.53;;;21.90;99.90;;;;;;5051744;28;20196;-77
2021/07/14 07:20:38;;;;;;;7.05;6.45;;;22.00;99.90;;;;;;5053669;28;20195;-77
2021/07/14 07:23:06;;;;;;;6.15;5.55;;;21.90;99.90;;;;;;5055121;28;20208;-76
2021/07/14 07:25:33;;;;;;;6.88;6.28;;;22.00;99.90;;;;;;5054343;28;20195;-76
2021/07/14 07:28:01;;;;;;;7.45;6.78;;;21.90;99.90;;;;;;5054832;28;20200;-76
2021/07/14 07:30:28;;;;;;;7.10;6.45;;;21.90;99.90;;;;;;5053540;28;20206;-76
2021/07/14 07:32:54;;;;;;;6.40;5.82;;;22.00;99.90;;;;;;5051679;28;20204;-76
2021/07/14 07:35:21;;;;;;;6.65;6.15;;;21.90;99.90;;;;;;5053321;28;20590;-76
2021/07/14 07:37:49;;;;;;;7.30;6.68;;;21.90;99.90;;;;;;5053023;28;20207;-76
2021/07/14 07:40:16;;;;;;;7.30;6.60;;;21.90;99.90;;;;;;5032895;28;20227;-77
2021/07/14 07:42:43;;;;;;;7.80;6.77;;;21.90;99.90;;;;;;5047610;28;20211;-76
2021/07/14 07:45:10;;;;;;;8.27;7.53;;;21.90;99.90;;;;;;5054075;28;20446;-76
2021/07/14 07:47:37;;;;;;;7.90;7.10;;;21.90;99.90;;;;;;5054263;28;20235;-77
2021/07/14 07:50:05;;;;;;;8.37;7.53;;;21.90;99.90;;;;;;5053401;28;20206;-76
2021/07/14 07:52:32;;;;;;;7.93;7.22;;;21.90;99.90;;;;;;5052467;28;20450;-76
2021/07/14 07:55:00;;;;;;;8.43;7.68;;;22.00;99.90;;;;;;5053177;28;20199;-76
2021/07/14 07:57:28;;;;;;;9.37;8.47;;;21.90;99.90;;;;;;5054110;28;20203;-76
2021/07/14 07:59:55;;;;;;;11.60;10.40;;;21.90;99.90;;;;;;5049473;28;20473;-76
2021/07/14 08:02:22;;;;;;;9.27;8.40;;;21.90;99.90;;;;;;5043238;28;20463;-76
2021/07/14 08:04:49;;;;;;;10.57;9.47;;;21.90;99.90;;;;;;5052941;28;20550;-76
2021/07/14 08:07:16;;;;;;;13.05;10.77;;;21.90;99.90;;;;;;5052414;28;20531;-76
2021/07/14 08:09:43;;;;;;;13.20;11.80;;;21.90;99.90;;;;;;5039253;28;20196;-77
2021/07/14 08:12:11;;;;;;;13.93;12.45;;;21.90;99.90;;;;;;5058962;28;20202;-76
2021/07/14 08:14:38;;;;;;;10.18;9.18;;;21.90;99.90;;;;;;5052052;28;20196;-76
2021/07/14 08:17:05;;;;;;;9.90;8.90;;;21.90;99.90;;;;;;5053341;28;20547;-77
2021/07/14 08:19:31;;;;;;;11.40;10.25;;;21.90;99.90;;;;;;5052050;28;20485;-76
2021/07/14 08:21:58;;;;;;;8.93;8.05;;;21.90;99.90;;;;;;5053266;28;20199;-76
2021/07/14 08:24:25;;;;;;;12.93;10.70;;;21.90;99.90;;;;;;5053032;28;20218;-76
2021/07/14 08:26:51;;;;;;;10.88;9.77;;;21.90;99.90;;;;;;5052385;28;20487;-76
2021/07/14 08:29:19;;;;;;;11.53;10.40;;;21.90;99.90;;;;;;5051506;28;20555;-76
2021/07/14 08:31:51;;;;;;;11.07;9.80;;;21.90;99.90;;;;;;5050154;28;20454;-76
2021/07/14 08:34:18;;;;;;;10.37;9.37;;;21.90;99.90;;;;;;5051353;28;20446;-76
2021/07/14 08:36:45;;;;;;;9.70;8.67;;;21.90;99.90;;;;;;5051938;28;20442;-76
2021/07/14 08:39:12;;;;;;;9.07;8.18;;;21.90;99.90;;;;;;5051880;28;20477;-76
2021/07/14 08:41:44;;;;;;;10.73;8.70;;;21.90;99.90;;;;;;5051070;28;20544;-76
2021/07/14 08:44:13;;;;;;;9.43;8.48;;;21.90;99.90;;;;;;5052513;28;20199;-76
2021/07/14 08:46:42;;;;;;;9.32;8.50;;;21.90;99.90;;;;;;5051915;28;20200;-78
2021/07/14 08:49:10;;;;;;;9.63;8.73;;;21.90;99.90;;;;;;5051810;28;20210;-78
2021/07/14 08:51:38;;;;;;;8.13;7.32;;;21.90;99.90;;;;;;5051624;28;20630;-77
2021/07/14 08:54:05;;;;;;;12.55;9.45;;;22.00;99.90;;;;;;5049010;28;20543;-78
2021/07/14 08:56:33;;;;;;;10.85;9.75;;;22.00;99.90;;;;;;5052793;28;20539;-81
2021/07/14 08:59:00;;;;;;;11.50;10.10;;;21.90;99.90;;;;;;5052687;28;20230;-80
2021/07/14 09:01:26;;;;;;;11.57;10.40;;;21.90;99.90;;;;;;5052565;28;20932;-77
2021/07/14 09:03:54;;;;;;;9.80;8.88;;;21.90;99.90;;;;;;5052615;28;20200;-76
2021/07/14 09:06:21;;;;;;;9.30;8.40;;;21.90;99.90;;;;;;5052384;28;20211;-77
2021/07/14 09:08:48;;;;;;;9.57;8.63;;;21.90;99.90;;;;;;5052534;28;20206;-77
2021/07/14 09:11:15;;;;;;;9.73;8.82;;;21.90;99.90;;;;;;5048084;28;20795;-77
2021/07/14 09:13:42;;;;;;;9.53;8.63;;;21.90;99.90;;;;;;5040683;28;20307;-77
2021/07/14 09:16:09;;;;;;;9.57;8.63;;;21.90;99.90;;;;;;5047749;28;20461;-77
2021/07/14 09:18:36;;;;;;;11.27;10.18;;;21.90;99.90;;;;;;5049880;28;20210;-77
2021/07/14 09:21:15;;;;;;;9.15;8.25;;;22.00;99.90;;;;;;5051715;28;20218;-77
2021/07/14 09:23:42;;;;;;;10.73;9.20;;;21.90;99.90;;;;;;5052023;28;20203;-77
2021/07/14 09:26:11;;;;;;;8.20;7.38;;;22.00;99.90;;;;;;5050378;28;20589;-77
2021/07/14 09:28:39;;;;;;;8.40;7.70;;;22.00;99.90;;;;;;5050439;28;20287;-76
2021/07/14 09:31:07;;;;;;;8.65;7.85;;;22.00;99.90;;;;;;5050091;28;20196;-76
2021/07/14 09:33:35;;;;;;;7.70;7.00;;;21.90;99.90;;;;;;5050096;28;20209;-77
2021/07/14 09:36:02;;;;;;;9.00;8.07;;;21.90;99.90;;;;;;5050772;28;20206;-77
2021/07/14 09:38:32;;;;;;;9.17;8.13;;;21.90;99.90;;;;;;5051151;28;20200;-77
2021/07/14 09:41:01;;;;;;;9.07;7.73;;;22.00;99.90;;;;;;5050123;28;20477;-77
2021/07/14 09:43:30;;;;;;;9.77;8.80;;;22.00;99.90;;;;;;5042122;28;20446;-77
2021/07/14 09:45:58;;;;;;;11.20;10.15;;;21.90;99.90;;;;;;5050350;28;20287;-77
2021/07/14 09:48:26;;;;;;;8.52;7.78;;;21.90;99.90;;;;;;5048452;28;20677;-76
2021/07/14 09:50:55;;;;;;;8.03;7.33;;;22.00;99.90;;;;;;5050872;28;20192;-76
2021/07/14 09:53:24;;;;;;;9.30;8.10;;;22.00;99.90;;;;;;5049699;28;20450;-77
2021/07/14 09:55:55;;;;;;;8.40;7.60;;;22.00;99.90;;;;;;5065200;28;20904;-76
2021/07/14 09:58:27;;;;;;;8.60;7.90;;;22.00;99.90;;;;;;5055250;28;20927;-77
2021/07/14 10:00:56;;;;;;;7.67;6.90;;;22.00;99.90;;;;;;5050668;28;20477;-77
2021/07/14 10:03:28;;;;;;;8.68;7.88;;;22.00;99.90;;;;;;5047907;28;20467;-76
2021/07/14 10:06:08;;;;;;;8.70;8.00;;;22.00;99.90;;;;;;5027501;28;20219;-76
2021/07/14 10:08:36;;;;;;;11.73;10.50;;;22.00;99.90;;;;;;5040631;28;20446;-76
2021/07/14 10:11:16;;;;;;;9.20;8.30;;;22.00;99.90;;;;;;5050855;28;20771;-76
2021/07/14 10:13:52;;;;;;;8.48;7.65;;;22.00;99.90;;;;;;5051079;28;20785;-79
2021/07/14 10:16:19;;;;;;;10.47;9.37;;;22.00;99.90;;;;;;5049806;28;20199;-82
2021/07/14 10:19:08;;;;;;;10.40;8.70;;;22.00;99.90;;;;;;5050502;28;20450;-78
2021/07/14 10:21:37;;;;;;;11.30;9.50;;;22.00;99.90;;;;;;5048603;28;20449;-78
2021/07/14 10:24:04;;;;;;;7.53;6.77;;;22.10;99.90;;;;;;5054584;28;20460;-78
2021/07/14 10:26:33;;;;;;;8.87;7.97;;;22.00;99.90;;;;;;5053994;28;20445;-80
2021/07/14 10:29:01;;;;;;;10.60;9.47;;;22.10;99.90;;;;;;5051402;28;20461;-79
2021/07/14 10:31:27;;;;;;;8.80;7.97;;;22.00;99.90;;;;;;5051607;28;20454;-80
2021/07/14 10:33:55;;;;;;;8.30;7.50;;;22.00;99.90;;;;;;5052312;28;20442;-80
2021/07/14 10:36:25;;;;;;;9.33;8.43;;;22.00;99.90;;;;;;5053646;28;20752;-77
2021/07/14 10:38:55;;;;;;;8.57;7.67;;;22.00;99.90;;;;;;5053765;28;20453;-77
2021/07/14 10:41:23;;;;;;;9.83;8.90;;;22.10;99.90;;;;;;5052863;28;20493;-81
2021/07/14 10:43:51;;;;;;;8.20;7.50;;;22.10;99.90;;;;;;5053849;28;20450;-79
2021/07/14 10:46:19;;;;;;;8.50;6.68;;;22.10;99.90;;;;;;5053322;28;20199;-80
2021/07/14 10:48:47;;;;;;;8.20;7.40;;;22.00;99.90;;;;;;5052210;28;20200;-77
2021/07/14 10:51:14;;;;;;;8.57;7.77;;;22.10;99.90;;;;;;5051240;28;20452;-78
2021/07/14 10:53:41;;;;;;;8.83;7.97;;;22.10;99.90;;;;;;5054573;28;20450;-77
2021/07/14 10:56:10;;;;;;;8.50;7.80;;;22.10;99.90;;;;;;5053861;28;20792;-75
2021/07/14 10:58:38;;;;;;;8.23;7.43;;;22.10;99.90;;;;;;5054032;28;20739;-77
2021/07/14 11:01:06;;;;;;;9.47;8.47;;;22.20;99.90;;;;;;5048346;28;20480;-76
2021/07/14 11:03:44;;;;;;;8.17;7.47;;;22.10;99.90;;;;;;5054106;28;20460;-76
2021/07/14 11:06:13;;;;;;;7.40;6.70;;;22.10;99.90;;;;;;5053863;28;20477;-76
2021/07/14 11:08:42;;;;;;;12.10;8.70;;;22.10;99.90;;;;;;5053602;28;20454;-76
2021/07/14 11:11:10;;;;;;;9.33;8.43;;;22.10;99.90;;;;;;5052760;28;20905;-76
2021/07/14 11:13:38;;;;;;;9.30;8.30;;;22.10;99.90;;;;;;5041244;28;20454;-76
2021/07/14 11:16:26;;;;;;;10.13;8.13;;;22.20;99.90;;;;;;5053619;28;20516;-76
2021/07/14 11:19:05;;;;;;;7.93;7.23;;;22.20;99.90;;;;;;5053866;28;20422;-77
2021/07/14 11:21:53;;;;;;;10.20;8.93;;;22.20;99.90;;;;;;5043833;28;20477;-76
2021/07/14 11:24:53;;;;;;;9.60;8.60;;;22.30;99.90;;;;;;5051710;28;20952;-79
2021/07/14 11:27:54;;;;;;;9.70;8.80;;;22.30;99.90;;;;;;5054044;28;20452;-78
2021/07/14 11:30:43;;;;;;;10.00;9.00;;;22.30;99.90;;;;;;5044181;28;20858;-80
2021/07/14 11:33:19;;;;;;;9.83;8.93;;;22.30;99.90;;;;;;5052562;28;20530;-79
2021/07/14 11:35:51;;;;;;;10.33;9.33;;;22.30;99.90;;;;;;5044398;28;25173;-76
2021/07/14 11:38:25;;;;;;;7.90;7.20;;;22.30;99.90;;;;;;5044662;28;20456;-75
2021/07/14 11:40:53;;;;;;;10.03;8.20;;;22.30;99.90;;;;;;5053524;28;20483;-79
2021/07/14 11:43:26;;;;;;;14.00;11.37;;;22.30;99.90;;;;;;5042271;28;20748;-75
2021/07/14 11:46:03;;;;;;;9.67;8.70;;;22.30;99.90;;;;;;5053916;28;20452;-76
2021/07/14 11:48:36;;;;;;;8.23;7.43;;;22.30;99.90;;;;;;5062583;28;20448;-76
2021/07/14 11:51:05;;;;;;;8.83;7.93;;;22.30;99.90;;;;;;5052629;28;20446;-77
2021/07/14 11:53:39;;;;;;;9.43;8.52;;;22.30;99.90;;;;;;5054891;28;20438;-81
2021/07/14 11:56:08;;;;;;;9.80;8.80;;;22.30;99.90;;;;;;5058821;28;20202;-78
2021/07/14 11:58:59;;;;;;;7.88;7.15;;;22.30;99.90;;;;;;5054064;28;20441;-78
2021/07/14 12:01:55;;;;;;;10.13;9.10;;;22.30;99.90;;;;;;5053821;28;20219;-77
2021/07/14 12:04:25;;;;;;;8.83;7.93;;;22.30;99.90;;;;;;5039291;28;20278;-76
2021/07/14 12:06:54;;;;;;;8.90;7.77;;;22.30;99.90;;;;;;5052280;28;20457;-76
2021/07/14 12:09:32;;;;;;;9.80;7.53;;;22.40;99.90;;;;;;5056850;28;20529;-81
2021/07/14 12:12:02;;;;;;;9.97;8.80;;;22.30;99.90;;;;;;5052770;28;20785;-77
2021/07/14 12:14:32;;;;;;;11.40;10.50;;;22.30;99.90;;;;;;5053623;28;20507;-81
2021/07/14 12:17:01;;;;;;;10.13;8.77;;;22.30;99.90;;;;;;5064867;28;20454;-77
2021/07/14 12:19:30;;;;;;;8.03;7.33;;;22.30;99.90;;;;;;5053611;28;20893;-77
2021/07/14 12:21:58;;;;;;;9.37;8.37;;;22.30;99.90;;;;;;5051472;28;21300;-80
2021/07/14 12:24:34;;;;;;;9.13;8.23;;;22.30;99.90;;;;;;5054660;28;20778;-81
2021/07/14 12:27:06;;;;;;;8.67;7.70;;;22.30;99.90;;;;;;5063504;28;20434;-79
2021/07/14 12:29:34;;;;;;;8.00;7.27;;;22.40;99.90;;;;;;5053124;28;20809;-80
2021/07/14 12:32:01;;;;;;;8.73;7.93;;;22.40;99.90;;;;;;5038252;28;20440;-81
2021/07/14 12:34:31;;;;;;;9.47;8.67;;;22.40;99.90;;;;;;5058210;28;20454;-80
2021/07/14 12:36:59;;;;;;;8.93;8.13;;;22.50;99.90;;;;;;5050558;28;20457;-79
2021/07/14 12:39:28;;;;;;;9.17;8.27;;;22.50;99.90;;;;;;5048077;28;20442;-83
2021/07/14 12:41:56;;;;;;;10.40;9.27;;;22.50;99.90;;;;;;5052442;28;20482;-77
2021/07/14 12:44:24;;;;;;;8.83;8.13;;;22.50;99.90;;;;;;5053585;28;20446;-83
2021/07/14 12:46:51;;;;;;;10.17;9.17;;;22.50;99.90;;;;;;5052718;28;20442;-78
2021/07/14 12:49:20;;;;;;;10.83;9.77;;;22.60;99.90;;;;;;5053256;28;20456;-80
2021/07/14 12:52:08;;;;;;;9.60;8.60;;;22.60;99.90;;;;;;5053377;28;20434;-76
2021/07/14 12:54:35;;;;;;;10.70;9.70;;;22.50;99.90;;;;;;5053020;28;20462;-79
2021/07/14 12:57:23;;;;;;;9.07;8.27;;;22.60;99.90;;;;;;5051877;28;20450;-75
2021/07/14 12:59:52;;;;;;;14.47;10.90;;;22.60;99.90;;;;;;5049898;28;20457;-79
2021/07/14 13:02:19;;;;;;;13.87;9.57;;;22.60;99.90;;;;;;5050970;28;20430;-77